Bob Sikes Airport
KCEW : now visible

Airfield :











YOU CAN JOIN US ON...

 
LOGIN :

Register | Disclaimer

   EN    FR    IT 

 









Legend :    VFR   Marginal VFR   IFR   Intensive IFR   Very Intensive IFR
Visi :
Ceiling :
>= 8 km
>= 3000ft
5 to 8 km
1000 to 3000 ft
1500m to 5 km
500 to 1000 ft
800 to 1500m
200 to 500 ft
< 800m
< 200 ft
Symbols :   Thunderstorms  Fog  Heavy snow  Heavy precipitations  Wind > 20 kt







- Airport Elevation : 213 ft


KCEW - Bob Sikes

CURRENT METAR :
  • 210553Z AUTO 00000KT 10SM CLR 22/21 A3004 RMK AO2 SLP169 T02220211 10283 20222 403110211 58005 TSNO

EXPIRED METARs :
  • 210453Z AUTO 00000KT 10SM CLR 23/21 A3006 RMK AO2 SLP177 T02280211 TSNO
  • 210353Z AUTO 00000KT 10SM CLR 23/22 A3008 RMK AO2 SLP181 T02330217 TSNO

TAF N/A
KZJX FIR / North America



MET'MAP, your aeronautical weather chart ! - Copyright ORBIFLY December 2007 - Disclaimer

ORBIFLY MET'MAP TEAM :

Programming & Development : Alexandra Zaïnal
Concept & Development : Baudouin d'Aumeries
Co-Development & Prog : Marc-Olivier Méhu
Technical & hardware support : Manuel Goepfert

Contact : metmap@orbifly.com




SOURCES & CREDITS :

   NOAA       Earth
Advisory